createdAt,value
2016-05-17T00:00:48.781Z,52.56
2016-05-17T00:01:48.800Z,52.37
2016-05-17T00:02:48.834Z,52.47
2016-05-17T00:03:48.867Z,52.56
2016-05-17T00:04:48.917Z,53.13
2016-05-17T00:05:48.950Z,52.94
2016-05-17T00:06:49.328Z,52.47
2016-05-17T00:07:49.019Z,52.84
2016-05-17T00:08:49.068Z,52.84
2016-05-17T00:09:49.086Z,52.37
2016-05-17T00:10:49.167Z,52.47
2016-05-17T00:11:49.014Z,52.75
2016-05-17T00:12:49.205Z,52.18
2016-05-17T00:13:49.238Z,52.56
2016-05-17T00:14:49.272Z,53.23
2016-05-17T00:15:49.305Z,52.75
2016-05-17T00:16:49.355Z,52.37
2016-05-17T00:17:49.421Z,52.47
2016-05-17T00:18:49.423Z,52.47
2016-05-17T00:19:49.458Z,52.66
2016-05-17T00:20:49.491Z,52.56
2016-05-17T00:21:49.885Z,52.56
2016-05-17T00:22:49.575Z,52.75
2016-05-17T00:23:49.609Z,53.13
2016-05-17T00:24:49.674Z,53.13
2016-05-17T00:25:49.676Z,53.04
2016-05-17T00:26:49.726Z,52.66
2016-05-17T00:27:49.776Z,53.23
2016-05-17T00:28:49.795Z,53.04
2016-05-17T00:29:49.828Z,52.94
2016-05-17T00:30:49.706Z,52.75
2016-05-17T00:31:49.942Z,52.84
2016-05-17T00:32:49.806Z,53.23
2016-05-17T00:33:49.979Z,53.13
2016-05-17T00:34:50.013Z,53.04
2016-05-17T00:35:50.047Z,52.84
2016-05-17T00:36:50.081Z,52.94
2016-05-17T00:37:50.131Z,52.84
2016-05-17T00:38:50.150Z,53.13
2016-05-17T00:39:50.230Z,53.13
2016-05-17T00:40:50.077Z,53.13
2016-05-17T00:41:50.266Z,53.13
2016-05-17T00:42:50.347Z,52.94
2016-05-17T00:43:50.350Z,53.42
2016-05-17T00:44:50.228Z,53.01
2016-05-17T00:45:50.419Z,53.89
2016-05-17T00:46:50.499Z,53.96
2016-05-17T00:47:50.486Z,53.61
2016-05-17T00:48:50.364Z,53.96
2016-05-17T00:49:50.601Z,53.77
2016-05-17T00:50:50.618Z,53.67
2016-05-17T00:51:51.090Z,53.49
2016-05-17T00:52:50.671Z,53.77
2016-05-17T00:53:50.705Z,53.96
2016-05-17T00:54:50.754Z,53.58
2016-05-17T00:55:50.617Z,53.67
2016-05-17T00:56:50.823Z,54.06
2016-05-17T00:57:50.856Z,53.87
2016-05-17T00:58:50.890Z,53.87
2016-05-17T00:59:50.924Z,53.67
2016-05-17T01:00:50.974Z,53.87
2016-05-17T01:01:51.009Z,54.35
2016-05-17T01:02:51.042Z,53.67
2016-05-17T01:03:51.076Z,53.96
2016-05-17T01:04:51.109Z,53.87
2016-05-17T01:05:51.003Z,54.15
2016-05-17T01:06:51.396Z,53.77
2016-05-17T01:07:51.056Z,54.06
2016-05-17T01:08:51.277Z,54.35
2016-05-17T01:09:51.280Z,54.44
2016-05-17T01:10:51.329Z,54.35
2016-05-17T01:11:51.363Z,54.53
2016-05-17T01:12:51.413Z,54.82
2016-05-17T01:13:51.447Z,54.35
2016-05-17T01:14:51.480Z,54.63
2016-05-17T01:15:51.514Z,54.15
2016-05-17T01:16:51.549Z,54.82
2016-05-17T01:17:51.583Z,54.53
2016-05-17T01:18:51.632Z,54.63
2016-05-17T01:19:51.682Z,55.29
2016-05-17T01:20:51.575Z,55.1
2016-05-17T01:21:51.733Z,55.01
2016-05-17T01:22:51.799Z,55.49
2016-05-17T01:23:51.801Z,55.2
2016-05-17T01:24:51.835Z,55.49
2016-05-17T01:25:51.713Z,55.1
2016-05-17T01:26:51.919Z,55.77
2016-05-17T01:27:51.953Z,55.68
2016-05-17T01:28:51.987Z,55.2
2016-05-17T01:29:52.020Z,55.29
2016-05-17T01:30:52.054Z,55.29
2016-05-17T01:31:52.089Z,55.77
2016-05-17T01:32:52.075Z,55.29
2016-05-17T01:33:52.220Z,55.1
2016-05-17T01:34:52.206Z,55.58
2016-05-17T01:35:52.240Z,55.96
2016-05-17T01:36:52.274Z,55.58
2016-05-17T01:37:52.339Z,55.39
2016-05-17T01:38:52.358Z,55.87
2016-05-17T01:39:52.235Z,55.29
2016-05-17T01:40:52.269Z,55.68
2016-05-17T01:41:52.459Z,55.58
2016-05-17T01:42:52.494Z,55.68
2016-05-17T01:43:52.527Z,55.58
2016-05-17T01:44:52.561Z,55.39
2016-05-17T01:45:52.672Z,55.68
2016-05-17T01:46:52.660Z,55.58
2016-05-17T01:47:52.663Z,55.77
2016-05-17T01:48:52.712Z,55.68
2016-05-17T01:49:52.778Z,55.87
2016-05-17T01:50:52.780Z,55.29
2016-05-17T01:51:52.830Z,55.58
2016-05-17T01:52:52.849Z,55.49
2016-05-17T01:53:52.898Z,55.58
2016-05-17T01:54:52.932Z,55.68
2016-05-17T01:55:52.965Z,56.15
2016-05-17T01:56:53.015Z,56.15
2016-05-17T01:57:53.034Z,55.29
2016-05-17T01:58:53.083Z,55.49
2016-05-17T01:59:53.117Z,55.58
2016-05-17T02:00:53.182Z,56.24
2016-05-17T02:01:53.185Z,55.49
2016-05-17T02:02:53.218Z,55.87
2016-05-17T02:03:53.284Z,55.68
2016-05-17T02:04:53.317Z,55.39
2016-05-17T02:05:53.337Z,55.68
2016-05-17T02:06:53.370Z,55.39
2016-05-17T02:07:53.436Z,56.15
2016-05-17T02:08:53.329Z,55.87
2016-05-17T02:09:53.472Z,55.96
2016-05-17T02:10:53.506Z,55.87
2016-05-17T02:11:53.572Z,55.77
2016-05-17T02:12:53.589Z,55.87
2016-05-17T02:13:53.623Z,55.77
2016-05-17T02:14:53.658Z,55.96
2016-05-17T02:15:53.722Z,55.87
2016-05-17T02:16:53.725Z,55.77
2016-05-17T02:17:53.759Z,56.05
2016-05-17T02:18:53.840Z,55.96
2016-05-17T02:19:53.719Z,55.87
2016-05-17T02:20:53.876Z,55.68
2016-05-17T02:21:53.910Z,56.22
2016-05-17T02:22:53.944Z,56.6
2016-05-17T02:23:53.994Z,56.53
2016-05-17T02:24:54.013Z,56.44
2016-05-17T02:25:54.062Z,56.53
2016-05-17T02:26:54.080Z,56.6
2016-05-17T02:27:54.130Z,56.88
2016-05-17T02:28:54.163Z,56.88
2016-05-17T02:29:54.213Z,56.79
2016-05-17T02:30:54.248Z,56.88
2016-05-17T02:31:54.110Z,56.98
2016-05-17T02:32:54.159Z,57.26
2016-05-17T02:33:54.193Z,57.26
2016-05-17T02:34:54.445Z,57.07
2016-05-17T02:35:54.417Z,57.26
2016-05-17T02:36:54.466Z,57.07
2016-05-17T02:37:54.610Z,56.88
2016-05-17T02:38:54.362Z,57.55
2016-05-17T02:39:54.631Z,57.45
2016-05-17T02:40:54.634Z,57.74
2016-05-17T02:41:54.480Z,57.74
2016-05-17T02:42:54.670Z,57.07
2016-05-17T02:43:54.703Z,57.55
2016-05-17T02:44:54.785Z,57.55
2016-05-17T02:45:54.788Z,57.36
2016-05-17T02:46:54.806Z,57.84
2016-05-17T02:47:54.856Z,57.93
2016-05-17T02:48:54.733Z,57.93
2016-05-17T02:49:54.923Z,57.55
2016-05-17T02:50:54.972Z,58.4
2016-05-17T02:51:55.039Z,58.4
2016-05-17T02:52:55.041Z,58.31
2016-05-17T02:53:55.075Z,58.12
2016-05-17T02:54:55.108Z,58.59
2016-05-17T02:55:55.174Z,58.31
2016-05-17T02:56:55.177Z,58.12
2016-05-17T02:57:55.210Z,58.22
2016-05-17T02:58:55.276Z,58.4
2016-05-17T02:59:55.294Z,58.69
2016-05-17T03:00:55.329Z,58.69
2016-05-17T03:01:55.362Z,58.88
2016-05-17T03:02:55.396Z,58.69
2016-05-17T03:03:55.429Z,58.69
2016-05-17T03:04:55.479Z,58.79
2016-05-17T03:05:55.513Z,58.59
2016-05-17T03:06:55.594Z,58.69
2016-05-17T03:07:55.581Z,59.17
2016-05-17T03:08:55.459Z,59.07
2016-05-17T03:09:55.508Z,59.07
2016-05-17T03:10:55.698Z,59.07
2016-05-17T03:11:55.717Z,59.27
2016-05-17T03:12:55.767Z,59.17
2016-05-17T03:13:55.800Z,58.98
2016-05-17T03:14:55.834Z,58.88
2016-05-17T03:15:55.711Z,59.55
2016-05-17T03:16:55.903Z,59.93
2016-05-17T03:17:55.952Z,60.12
2016-05-17T03:18:55.986Z,60.12
2016-05-17T03:19:56.005Z,59.93
2016-05-17T03:20:55.928Z,59.83
2016-05-17T03:21:56.118Z,59.74
2016-05-17T03:22:56.121Z,59.93
2016-05-17T03:23:56.140Z,59.74
2016-05-17T03:24:56.174Z,59.83
2016-05-17T03:25:56.238Z,59.83
2016-05-17T03:26:56.288Z,59.64
2016-05-17T03:27:56.307Z,60.12
2016-05-17T03:28:56.372Z,59.74
2016-05-17T03:29:56.468Z,59.93
2016-05-17T03:30:56.252Z,59.93
2016-05-17T03:31:56.426Z,59.93
2016-05-17T03:32:56.321Z,59.74
2016-05-17T03:33:56.511Z,59.64
2016-05-17T03:34:56.576Z,60.12
2016-05-17T03:35:56.579Z,60.12
2016-05-17T03:36:57.425Z,60.12
2016-05-17T03:37:56.646Z,60.31
2016-05-17T03:38:56.695Z,60.78
2016-05-17T03:39:56.777Z,60.78
2016-05-17T03:40:56.764Z,60.78
2016-05-17T03:41:56.798Z,60.88
2016-05-17T03:42:56.862Z,61.16
2016-05-17T03:43:56.881Z,61.16
2016-05-17T03:44:56.915Z,61.26
2016-05-17T03:45:56.949Z,60.88
2016-05-17T03:46:56.967Z,61.55
2016-05-17T03:47:57.016Z,61.26
2016-05-17T03:48:57.067Z,61.35
2016-05-17T03:49:57.085Z,61.64
2016-05-17T03:50:56.977Z,61.64
2016-05-17T03:51:57.512Z,61.35
2016-05-17T03:52:57.202Z,61.55
2016-05-17T03:53:57.236Z,61.74
2016-05-17T03:54:57.269Z,61.74
2016-05-17T03:55:57.304Z,62.3
2016-05-17T03:56:57.338Z,61.83
2016-05-17T03:57:57.403Z,61.93
2016-05-17T03:58:57.405Z,61.74
2016-05-17T03:59:57.440Z,62.02
2016-05-17T04:00:57.490Z,61.93
2016-05-17T04:01:57.554Z,61.74
2016-05-17T04:02:57.557Z,62.02
2016-05-17T04:03:57.590Z,62.59
2016-05-17T04:04:57.641Z,62.59
2016-05-17T04:05:57.660Z,62.49
2016-05-17T04:06:57.709Z,62.21
2016-05-17T04:07:57.587Z,62.4
2016-05-17T04:08:57.807Z,62.49
2016-05-17T04:09:57.810Z,62.4
2016-05-17T04:10:57.859Z,62.4
2016-05-17T04:11:57.894Z,62.4
2016-05-17T04:12:57.912Z,63.07
2016-05-17T04:13:57.946Z,62.78
2016-05-17T04:14:57.995Z,62.97
2016-05-17T04:15:58.014Z,62.69
2016-05-17T04:16:58.048Z,62.78
2016-05-17T04:17:58.097Z,62.49
2016-05-17T04:18:58.131Z,63.07
2016-05-17T04:19:58.196Z,62.88
2016-05-17T04:20:58.200Z,62.4
2016-05-17T04:21:58.422Z,62.88
2016-05-17T04:22:58.283Z,62.59
2016-05-17T04:23:58.317Z,62.69
2016-05-17T04:24:58.350Z,62.59
2016-05-17T04:25:58.385Z,62.3
2016-05-17T04:26:58.434Z,62.69
2016-05-17T04:27:58.452Z,62.12
2016-05-17T04:28:58.486Z,61.74
2016-05-17T04:29:58.536Z,62.21
2016-05-17T04:30:58.601Z,61.93
2016-05-17T04:31:58.604Z,61.83
2016-05-17T04:32:58.638Z,61.96
2016-05-17T04:33:58.671Z,62.02
2016-05-17T04:34:58.721Z,61.83
2016-05-17T04:35:58.739Z,61.96
2016-05-17T04:36:58.790Z,61.93
2016-05-17T04:37:58.855Z,61.64
2016-05-17T04:38:58.732Z,61.83
2016-05-17T04:39:58.891Z,61.93
2016-05-17T04:40:58.956Z,62.02
2016-05-17T04:41:58.990Z,61.29
2016-05-17T04:42:59.008Z,62.15
2016-05-17T04:43:58.870Z,61.96
2016-05-17T04:44:59.076Z,61.58
2016-05-17T04:45:59.111Z,62.24
2016-05-17T04:46:58.989Z,61.96
2016-05-17T04:47:59.178Z,62.15
2016-05-17T04:48:59.072Z,62.4
2016-05-17T04:49:59.261Z,62.59
2016-05-17T04:50:59.295Z,62.12
2016-05-17T04:51:59.719Z,62.43
2016-05-17T04:52:59.380Z,62.4
2016-05-17T04:53:59.398Z,63.07
2016-05-17T04:54:59.275Z,62.81
2016-05-17T04:55:59.528Z,62.62
2016-05-17T04:56:59.515Z,62.53
2016-05-17T04:57:59.549Z,62.3
2016-05-17T04:58:59.583Z,62.53
2016-05-17T04:59:59.663Z,62.53
2016-05-17T05:00:59.666Z,62.43
2016-05-17T05:01:59.685Z,62.53
2016-05-17T05:03:00.032Z,63.1
2016-05-17T05:03:59.768Z,62.81
2016-05-17T05:04:59.802Z,63.29
2016-05-17T05:05:59.835Z,63.1
2016-05-17T05:07:00.057Z,63.01
2016-05-17T05:07:59.919Z,63.2
2016-05-17T05:08:59.937Z,63.2
2016-05-17T05:10:00.009Z,63.2
2016-05-17T05:11:00.101Z,63.1
2016-05-17T05:12:00.163Z,63.2
2016-05-17T05:13:00.083Z,62.72
2016-05-17T05:14:00.347Z,63.54
2016-05-17T05:15:00.395Z,63.29
2016-05-17T05:16:00.288Z,63.54
2016-05-17T05:17:00.604Z,63.73
2016-05-17T05:18:00.558Z,63.73
2016-05-17T05:19:00.593Z,64.05
2016-05-17T05:20:00.637Z,64.11
2016-05-17T05:21:00.676Z,64.02
2016-05-17T05:22:00.731Z,64.02
2016-05-17T05:23:00.771Z,64.43
2016-05-17T05:24:00.809Z,64.02
2016-05-17T05:25:00.878Z,63.96
2016-05-17T05:26:00.899Z,64.34
2016-05-17T05:27:00.920Z,64.4
2016-05-17T05:28:00.939Z,64.21
2016-05-17T05:29:00.991Z,64.69
2016-05-17T05:30:01.042Z,64.97
2016-05-17T05:31:01.217Z,65.48
2016-05-17T05:32:01.142Z,66.11
2016-05-17T05:33:01.177Z,65.67
2016-05-17T05:34:01.243Z,65.83
2016-05-17T05:35:01.074Z,65.86
2016-05-17T05:36:01.265Z,66.33
2016-05-17T05:37:01.315Z,66.39
2016-05-17T05:38:02.802Z,66.72
2016-05-17T05:39:01.821Z,66.3
2016-05-17T05:40:01.418Z,66.02
2016-05-17T05:41:01.435Z,66.3
2016-05-17T05:42:01.470Z,66.62
2016-05-17T05:43:01.504Z,66.72
2016-05-17T05:44:01.647Z,66.14
2016-05-17T05:45:01.743Z,66.24
2016-05-17T05:46:01.621Z,66.24
2016-05-17T05:47:01.921Z,66.24
2016-05-17T05:48:01.704Z,65.77
2016-05-17T05:49:01.724Z,66.05
2016-05-17T05:50:01.741Z,66.05
2016-05-17T05:51:01.806Z,65.86
2016-05-17T05:52:01.731Z,66.24
2016-05-17T05:53:01.921Z,65.67
2016-05-17T05:54:01.753Z,65.77
2016-05-17T05:55:01.787Z,66.05
2016-05-17T05:56:02.023Z,65.77
2016-05-17T05:57:02.026Z,65.48
2016-05-17T05:58:02.092Z,65.86
2016-05-17T05:59:02.016Z,65.77
2016-05-17T06:00:02.769Z,65.58
2016-05-17T06:01:02.193Z,65.77
2016-05-17T06:02:02.211Z,65.38
2016-05-17T06:03:02.558Z,64.84
2016-05-17T06:04:02.280Z,65.13
2016-05-17T06:05:02.328Z,65.03
2016-05-17T06:06:02.347Z,65.1
2016-05-17T06:07:02.708Z,65.32
2016-05-17T06:08:02.430Z,64.75
2016-05-17T06:09:02.464Z,65.03
2016-05-17T06:10:03.124Z,64.65
2016-05-17T06:11:02.548Z,64.18
2016-05-17T06:12:02.691Z,64.47
2016-05-17T06:13:02.724Z,65.13
2016-05-17T06:14:02.649Z,64.56
2016-05-17T06:15:37.608Z,64.65
2016-05-17T06:16:36.032Z,64.28
2016-05-17T06:17:30.926Z,64.47
2016-05-17T06:18:30.632Z,64.65
2016-05-17T06:19:30.665Z,65.23
2016-05-17T06:20:31.419Z,65.03
2016-05-17T06:21:30.749Z,64.28
2016-05-17T06:22:30.861Z,64.28
2016-05-17T06:23:30.989Z,64.28
2016-05-17T06:24:30.882Z,64.28
2016-05-17T06:25:30.854Z,64.56
2016-05-17T06:26:30.888Z,64.56
2016-05-17T06:27:31.251Z,64.65
2016-05-17T06:28:31.564Z,64.75
2016-05-17T06:29:31.834Z,65.03
2016-05-17T06:30:32.445Z,65.03
2016-05-17T06:31:32.761Z,65.13
2016-05-17T06:32:32.654Z,64.47
2016-05-17T06:33:33.204Z,64.56
2016-05-17T06:34:33.363Z,64.28
2016-05-17T06:35:33.116Z,64.28
2016-05-17T06:36:32.822Z,64.18
2016-05-17T06:37:33.621Z,63.6
2016-05-17T06:38:33.827Z,63.51
2016-05-17T06:39:33.469Z,63.64
2016-05-17T06:40:33.347Z,63.64
2016-05-17T06:41:36.772Z,63.64
2016-05-17T06:42:33.635Z,63.73
2016-05-17T06:43:33.621Z,62.97
2016-05-17T06:44:34.124Z,62.97
2016-05-17T06:45:32.752Z,63.64
2016-05-17T06:46:33.004Z,62.78
2016-05-17T06:47:32.960Z,62.59
2016-05-17T06:48:31.821Z,62.78
2016-05-17T06:49:32.793Z,62.05
2016-05-17T06:50:32.546Z,61.93
2016-05-17T06:51:33.237Z,61.29
2016-05-17T06:52:32.614Z,61.29
2016-05-17T06:53:33.132Z,61.29
2016-05-17T06:54:32.682Z,61.48
2016-05-17T06:55:31.981Z,61.1
2016-05-17T06:56:32.031Z,60.91
2016-05-17T06:57:32.049Z,61.19
2016-05-17T06:58:32.615Z,61.19
2016-05-17T06:59:32.461Z,60.81
2016-05-17T07:00:33.683Z,61.54
2016-05-17T07:01:32.856Z,61.16
2016-05-17T07:02:32.750Z,61.73
2016-05-17T07:03:32.441Z,61.54
2016-05-17T07:04:32.568Z,61.35
2016-05-17T07:05:32.883Z,61.73
2016-05-17T07:06:33.370Z,62.02
2016-05-17T07:07:32.717Z,61.73
2016-05-17T07:08:32.485Z,61.54
2016-05-17T07:09:32.519Z,61.35
2016-05-17T07:10:32.584Z,61.35
2016-05-17T07:11:32.587Z,60.97
2016-05-17T07:12:32.777Z,61.16
2016-05-17T07:13:33.280Z,61.07
2016-05-17T07:14:36.641Z,61.29
2016-05-17T07:15:33.613Z,60.24
2016-05-17T07:16:33.210Z,59.95
2016-05-17T07:17:33.307Z,59.67
2016-05-17T07:18:33.387Z,58.91
2016-05-17T07:19:33.343Z,58.17
2016-05-17T07:20:32.954Z,58.26
2016-05-17T07:21:32.989Z,58.26
2016-05-17T07:22:33.054Z,58.26
2016-05-17T07:23:33.040Z,57.7
2016-05-17T07:24:33.076Z,58.07
2016-05-17T07:25:32.656Z,57.7
2016-05-17T07:26:33.159Z,57.89
2016-05-17T07:27:33.193Z,57.7
2016-05-17T07:28:33.851Z,58.65
2016-05-17T07:29:33.276Z,58.46
2016-05-17T07:30:33.309Z,57.89
2016-05-17T07:31:33.578Z,58.26
2016-05-17T07:32:33.503Z,58.24
2016-05-17T07:33:33.600Z,58.62
2016-05-17T07:34:34.164Z,58.24
2016-05-17T07:35:33.839Z,58.33
2016-05-17T07:36:34.108Z,58.62
2016-05-17T07:37:34.250Z,58.91
2016-05-17T07:38:35.175Z,59.57
2016-05-17T07:39:34.272Z,59.09
2016-05-17T07:40:35.477Z,59.76
2016-05-17T07:41:35.089Z,60.05
2016-05-17T07:42:35.077Z,59.57
2016-05-17T07:43:35.032Z,60.33
2016-05-17T07:44:35.207Z,60.24
2016-05-17T07:45:34.303Z,59.83
2016-05-17T07:46:35.353Z,59.76
2016-05-17T07:47:37.575Z,59.76
2016-05-17T07:48:34.593Z,60.05
2016-05-17T07:49:34.674Z,60.05
2016-05-17T07:50:36.004Z,59.86
2016-05-17T07:51:34.445Z,59.86
2016-05-17T07:52:34.432Z,59.67
2016-05-17T07:53:34.840Z,59.86
2016-05-17T07:54:35.484Z,58.91
2016-05-17T07:55:35.033Z,58.91
2016-05-17T07:56:34.755Z,57.95
2016-05-17T07:57:34.773Z,57.09
2016-05-17T07:58:35.198Z,57.09
2016-05-17T07:59:35.295Z,56.62
2016-05-17T08:00:36.078Z,56.81
2016-05-17T08:01:35.097Z,56.14
2016-05-17T08:02:36.334Z,55.76
2016-05-17T08:03:35.602Z,55.47
2016-05-17T08:04:35.839Z,54.9
2016-05-17T08:05:35.700Z,55.47
2016-05-17T08:06:36.111Z,55.66
2016-05-17T08:07:36.003Z,55.09
2016-05-17T08:08:35.583Z,55.57
2016-05-17T08:09:34.994Z,55.09
2016-05-17T08:10:35.886Z,54.55
2016-05-17T08:11:35.358Z,53.97
2016-05-17T08:12:36.189Z,54.07
2016-05-17T08:13:36.457Z,53.02
2016-05-17T08:14:36.725Z,53.12
2016-05-17T08:15:35.493Z,53.12
2016-05-17T08:16:35.918Z,52.83
2016-05-17T08:17:36.108Z,52.83
2016-05-17T08:18:36.235Z,52.45
2016-05-17T08:19:35.801Z,52.55
2016-05-17T08:20:36.523Z,52.09
2016-05-17T08:21:37.415Z,52.09
2016-05-17T08:22:36.591Z,51.81
2016-05-17T08:23:35.437Z,51.52
2016-05-17T08:24:35.690Z,51.83
2016-05-17T08:25:36.223Z,50.21
2016-05-17T08:26:37.054Z,50.02
2016-05-17T08:27:35.948Z,50.33
2016-05-17T08:28:35.762Z,49.18
2016-05-17T08:29:36.156Z,48.52
2016-05-17T08:30:36.893Z,48.11
2016-05-17T08:31:39.193Z,48.3
2016-05-17T08:32:36.586Z,49.07
2016-05-17T08:33:35.854Z,49.35
2016-05-17T08:34:37.107Z,50.21
2016-05-17T08:35:35.829Z,50.47
2016-05-17T08:36:36.581Z,50.38
2016-05-17T08:37:35.928Z,50.47
2016-05-17T08:38:37.681Z,51.14
2016-05-17T08:39:37.230Z,51.52
2016-05-17T08:40:36.186Z,52.19
2016-05-17T08:41:36.142Z,51.33
2016-05-17T08:42:36.503Z,52.28
2016-05-17T08:43:36.116Z,52.19
2016-05-17T08:44:36.149Z,52.07
2016-05-17T08:45:36.183Z,52
2016-05-17T08:46:37.124Z,52.83
2016-05-17T08:47:36.986Z,52.83
2016-05-17T08:48:37.238Z,53.59
2016-05-17T08:49:38.085Z,53.41
2016-05-17T08:50:36.571Z,54.45
2016-05-17T08:51:37.512Z,54.36
2016-05-17T08:52:38.077Z,54.45
2016-05-17T08:53:37.737Z,54.26
2016-05-17T08:54:36.568Z,54.55
2016-05-17T08:55:37.085Z,54.45
2016-05-17T08:56:38.713Z,53.59
2016-05-17T08:57:38.294Z,53.24
2016-05-17T08:58:37.953Z,52.86
2016-05-17T08:59:37.768Z,53.27
2016-05-17T09:00:37.365Z,52.5
2016-05-17T09:01:38.054Z,52.12
2016-05-17T09:02:36.745Z,51.45
2016-05-17T09:03:37.278Z,50.14
2016-05-17T09:04:36.937Z,50.04
2016-05-17T09:05:37.534Z,49.57
2016-05-17T09:06:38.974Z,49.3
2016-05-17T09:07:38.242Z,48.54
2016-05-17T09:08:37.511Z,48.44
2016-05-17T09:09:37.311Z,48.25
2016-05-17T09:10:37.704Z,47.49
2016-05-17T09:11:37.660Z,47.01
2016-05-17T09:12:38.178Z,46.08
2016-05-17T09:13:37.305Z,45.79
2016-05-17T09:14:37.387Z,45.6
2016-05-17T09:15:37.624Z,45.7
2016-05-17T09:16:40.470Z,45.6
2016-05-17T09:17:37.676Z,45.22
2016-05-17T09:18:37.913Z,45.41
2016-05-17T09:19:37.399Z,45.7
2016-05-17T09:20:37.574Z,45.81
2016-05-17T09:21:38.171Z,45.62
2016-05-17T09:22:38.033Z,44.29
2016-05-17T09:23:37.708Z,44.95
2016-05-17T09:24:37.741Z,44.21
2016-05-17T09:25:37.635Z,44.31
2016-05-17T09:26:37.826Z,44.31
2016-05-17T09:27:37.890Z,44.12
2016-05-17T09:28:38.799Z,43.76
2016-05-17T09:29:37.974Z,43.47
2016-05-17T09:30:37.992Z,42.9
2016-05-17T09:31:38.276Z,42.9
2016-05-17T09:32:38.435Z,43.08
2016-05-17T09:33:38.141Z,43.37
2016-05-17T09:34:44.690Z,43.73
2016-05-17T09:35:38.209Z,44.02
2016-05-17T09:36:38.712Z,43.44
2016-05-17T09:37:38.667Z,43.54
2016-05-17T09:38:40.154Z,43.16
2016-05-17T09:39:41.532Z,43.44
2016-05-17T09:40:42.206Z,42.94
2016-05-17T09:41:42.866Z,43.43
2016-05-17T09:42:44.540Z,42.94
2016-05-17T09:43:43.542Z,43.43
2016-05-17T09:44:40.858Z,43.14
2016-05-17T09:45:40.547Z,43.62
2016-05-17T09:46:41.722Z,43.52
2016-05-17T09:47:39.819Z,44.26
2016-05-17T09:48:40.368Z,44.84
2016-05-17T09:49:38.980Z,45.03
2016-05-17T09:50:39.077Z,45.79
2016-05-17T09:51:38.877Z,45.7
2016-05-17T09:52:38.755Z,45.79
2016-05-17T09:53:39.961Z,46.63
2016-05-17T09:54:39.134Z,45.6
2016-05-17T09:55:39.029Z,45.89
2016-05-17T09:56:39.157Z,45.72
2016-05-17T09:57:38.971Z,45.43
2016-05-17T09:58:39.646Z,45.43
2016-05-17T09:59:39.070Z,45.94
2016-05-17T10:00:39.229Z,44.79
2016-05-17T10:01:39.123Z,43.35
2016-05-17T10:02:39.531Z,42.97
2016-05-17T10:03:39.503Z,43.35
2016-05-17T10:04:41.240Z,42.58
2016-05-17T10:05:39.430Z,42.94
2016-05-17T10:06:39.839Z,43.62
2016-05-17T10:07:39.529Z,43.04
2016-05-17T10:08:39.564Z,43.62
2016-05-17T10:09:39.878Z,43.9
2016-05-17T10:10:39.928Z,43.71
2016-05-17T10:11:39.696Z,44.29
2016-05-17T10:12:39.715Z,44.19
2016-05-17T10:13:39.764Z,44.74
2016-05-17T10:14:40.345Z,44.74
2016-05-17T10:15:41.208Z,45.22
2016-05-17T10:16:39.881Z,45.51
2016-05-17T10:17:40.853Z,45.22
2016-05-17T10:18:40.216Z,44.38
2016-05-17T10:19:39.905Z,43.9
2016-05-17T10:20:40.049Z,43.43
2016-05-17T10:21:40.099Z,43.33
2016-05-17T10:22:40.569Z,43.23
2016-05-17T10:23:40.166Z,42.77
2016-05-17T10:24:40.902Z,42.68
2016-05-17T10:25:40.313Z,43.73
2016-05-17T10:26:40.424Z,42.4
2016-05-17T10:27:40.332Z,42.49
2016-05-17T10:28:40.383Z,42.49
2016-05-17T10:29:40.963Z,42.97
2016-05-17T10:30:40.450Z,42.97
2016-05-17T10:31:40.547Z,42.97
2016-05-17T10:32:40.534Z,42.68
2016-05-17T10:33:40.599Z,42.49
2016-05-17T10:34:40.618Z,42.3
2016-05-17T10:35:40.667Z,43.06
2016-05-17T10:36:40.700Z,42.97
2016-05-17T10:37:40.782Z,43.63
2016-05-17T10:38:40.784Z,43.71
2016-05-17T10:39:41.553Z,43.43
2016-05-17T10:40:40.853Z,43.43
2016-05-17T10:41:40.949Z,43.71
2016-05-17T10:42:40.951Z,43.33
2016-05-17T10:43:40.829Z,42.4
2016-05-17T10:44:41.036Z,42.01
2016-05-17T10:45:41.069Z,40.19
2016-05-17T10:46:40.978Z,40.29
2016-05-17T10:47:41.153Z,40.19
2016-05-17T10:48:41.202Z,40.67
2016-05-17T10:49:41.267Z,40.31
2016-05-17T10:50:41.630Z,39.25
2016-05-17T10:51:41.570Z,38.98
2016-05-17T10:52:41.353Z,38.32
2016-05-17T10:53:41.481Z,37.65
2016-05-17T10:54:41.280Z,37.57
2016-05-17T10:55:41.486Z,36.71
2016-05-17T10:56:41.552Z,37.01
2016-05-17T10:57:41.601Z,36.15
2016-05-17T10:58:41.463Z,34.44
2016-05-17T10:59:41.654Z,34.17
2016-05-17T11:00:41.704Z,33.42
2016-05-17T11:01:41.768Z,31.24
2016-05-17T11:02:41.927Z,30.1
2016-05-17T11:03:41.929Z,28.22
2016-05-17T11:04:41.948Z,26.22
2016-05-17T11:05:41.920Z,25.09
2016-05-17T11:06:42.390Z,23.1
2016-05-17T11:07:42.018Z,21.67
2016-05-17T11:08:42.256Z,21.57
2016-05-17T11:09:42.118Z,21.66
2016-05-17T11:10:42.151Z,21.65
2016-05-17T11:11:42.217Z,22.78
2016-05-17T11:12:42.344Z,24.2
2016-05-17T11:13:43.363Z,25.71
2016-05-17T11:14:42.334Z,26.94
2016-05-17T11:15:42.524Z,28.66
2016-05-17T11:16:42.277Z,29.8
2016-05-17T11:17:42.483Z,30.92
2016-05-17T11:18:42.861Z,32.34
2016-05-17T11:19:42.614Z,33.48
2016-05-17T11:20:42.617Z,34.14
2016-05-17T11:21:42.868Z,34.98
2016-05-17T11:22:42.699Z,35.73
2016-05-17T11:23:43.312Z,35.83
2016-05-17T11:24:42.814Z,37.16
2016-05-17T11:25:42.661Z,37.53
2016-05-17T11:26:42.945Z,37.92
2016-05-17T11:27:42.994Z,38.59
2016-05-17T11:28:42.966Z,39.45
2016-05-17T11:29:42.999Z,39.06
2016-05-17T11:30:43.018Z,40.5
2016-05-17T11:31:43.068Z,40.09
2016-05-17T11:32:43.102Z,40.29
2016-05-17T11:33:43.151Z,40.48
2016-05-17T11:34:43.029Z,40.95
2016-05-17T11:35:43.110Z,41.34
2016-05-17T11:36:43.440Z,41.15
2016-05-17T11:37:43.395Z,41.53
2016-05-17T11:38:43.384Z,41.53
2016-05-17T11:39:43.433Z,41.44
2016-05-17T11:40:44.607Z,42.01
2016-05-17T11:41:43.485Z,42.01
2016-05-17T11:42:43.550Z,42.4
2016-05-17T11:43:43.662Z,42.3
2016-05-17T11:44:43.617Z,41.63
2016-05-17T11:45:43.652Z,41.24
2016-05-17T11:46:43.780Z,41.34
2016-05-17T11:47:43.845Z,41.34
2016-05-17T11:48:43.894Z,41.82
2016-05-17T11:49:43.960Z,41.91
2016-05-17T11:50:43.853Z,42.49
2016-05-17T11:51:44.418Z,41.91
2016-05-17T11:52:44.077Z,41.82
2016-05-17T11:53:43.971Z,41.72
2016-05-17T11:54:44.019Z,41.44
2016-05-17T11:55:44.085Z,40.98
2016-05-17T11:56:44.088Z,40.69
2016-05-17T11:57:45.340Z,40.59
2016-05-17T11:58:44.016Z,40.31
2016-05-17T11:59:44.238Z,40.5
2016-05-17T12:00:44.270Z,40.86
2016-05-17T12:01:44.304Z,41.44
2016-05-17T12:02:44.354Z,41.44
2016-05-17T12:03:44.388Z,42.01
2016-05-17T12:04:44.421Z,42.58
2016-05-17T12:05:44.550Z,42.97
2016-05-17T12:06:44.552Z,43.35
2016-05-17T12:07:44.554Z,43.44
2016-05-17T12:08:44.620Z,43.43
2016-05-17T12:09:44.623Z,43.43
2016-05-17T12:10:44.703Z,43.04
2016-05-17T12:11:44.894Z,43.43
2016-05-17T12:12:44.881Z,42.94
2016-05-17T12:13:44.853Z,43.14
2016-05-17T12:14:44.870Z,43.43
2016-05-17T12:15:44.889Z,43.62
2016-05-17T12:16:44.923Z,43.23
2016-05-17T12:17:44.956Z,43.52
2016-05-17T12:18:45.006Z,43.52
2016-05-17T12:19:45.041Z,43.43
2016-05-17T12:20:45.106Z,43.62
2016-05-17T12:21:45.452Z,44
2016-05-17T12:22:45.642Z,43.43
2016-05-17T12:23:45.269Z,43.62
2016-05-17T12:24:45.272Z,43.52
2016-05-17T12:25:45.744Z,43.52
2016-05-17T12:26:45.325Z,43.43
2016-05-17T12:27:45.374Z,43.59
2016-05-17T12:28:45.393Z,43.5
2016-05-17T12:29:45.458Z,44.36
2016-05-17T12:30:45.492Z,44.07
2016-05-17T12:31:45.541Z,44.84
2016-05-17T12:32:45.654Z,44.26
2016-05-17T12:33:45.594Z,44.65
2016-05-17T12:34:45.768Z,44.43
2016-05-17T12:35:45.693Z,45.29
2016-05-17T12:36:45.726Z,45.29
2016-05-17T12:37:45.745Z,46.06
2016-05-17T12:38:45.888Z,46.44
2016-05-17T12:39:45.923Z,46.34
2016-05-17T12:40:45.893Z,46.44
2016-05-17T12:41:45.943Z,46.44
2016-05-17T12:42:46.228Z,46.72
2016-05-17T12:43:45.840Z,47.01
2016-05-17T12:44:45.889Z,46.82
2016-05-17T12:45:46.111Z,47.11
2016-05-17T12:46:46.145Z,47.39
2016-05-17T12:47:46.209Z,47.11
2016-05-17T12:48:47.180Z,47.68
2016-05-17T12:49:46.246Z,47.78
2016-05-17T12:50:46.827Z,47.87
2016-05-17T12:51:46.798Z,47.68
2016-05-17T12:52:46.363Z,48.07
2016-05-17T12:53:46.397Z,48.25
2016-05-17T12:54:46.431Z,48.44
2016-05-17T12:55:46.497Z,47.87